sensor_id;sensor_type;location;lat;lon;timestamp;pressure;altitude;pressure_sealevel;temperature;humidity
35224;BME280;21367;51.930;8.112;2023-04-08T00:00:52;101574.44;;;4.74;89.75
35224;BME280;21367;51.930;8.112;2023-04-08T00:05:59;101585.00;;;4.68;90.09
35224;BME280;21367;51.930;8.112;2023-04-08T00:11:04;101580.94;;;4.60;89.38
35224;BME280;21367;51.930;8.112;2023-04-08T00:16:08;101583.00;;;4.54;90.15
35224;BME280;21367;51.930;8.112;2023-04-08T00:21:15;101581.63;;;4.47;89.37
35224;BME280;21367;51.930;8.112;2023-04-08T00:26:20;101578.78;;;4.54;89.01
35224;BME280;21367;51.930;8.112;2023-04-08T00:31:24;101576.03;;;4.41;89.10
35224;BME280;21367;51.930;8.112;2023-04-08T00:36:31;101585.22;;;4.39;88.61
35224;BME280;21367;51.930;8.112;2023-04-08T00:41:36;101580.88;;;4.38;88.08
35224;BME280;21367;51.930;8.112;2023-04-08T00:46:40;101576.19;;;4.43;87.73
35224;BME280;21367;51.930;8.112;2023-04-08T00:51:47;101578.88;;;4.34;87.75
35224;BME280;21367;51.930;8.112;2023-04-08T00:56:51;101580.00;;;4.37;87.73
35224;BME280;21367;51.930;8.112;2023-04-08T01:02:01;101582.44;;;4.36;88.28
35224;BME280;21367;51.930;8.112;2023-04-08T01:07:14;101585.25;;;4.18;88.03
35224;BME280;21367;51.930;8.112;2023-04-08T01:12:24;101593.63;;;4.07;88.18
35224;BME280;21367;51.930;8.112;2023-04-08T01:17:31;101588.94;;;4.22;87.59
35224;BME280;21367;51.930;8.112;2023-04-08T01:22:45;101595.81;;;4.13;88.48
35224;BME280;21367;51.930;8.112;2023-04-08T01:27:57;101590.56;;;4.32;88.20
35224;BME280;21367;51.930;8.112;2023-04-08T01:39:07;101604.56;;;4.37;87.22
35224;BME280;21367;51.930;8.112;2023-04-08T01:44:16;101608.63;;;4.35;86.79
35224;BME280;21367;51.930;8.112;2023-04-08T01:49:21;101615.13;;;4.31;86.64
35224;BME280;21367;51.930;8.112;2023-04-08T01:54:26;101607.00;;;4.25;87.40
35224;BME280;21367;51.930;8.112;2023-04-08T01:59:37;101614.09;;;4.29;88.54
35224;BME280;21367;51.930;8.112;2023-04-08T02:04:43;101611.56;;;4.39;88.55
35224;BME280;21367;51.930;8.112;2023-04-08T02:09:47;101612.06;;;4.35;89.79
35224;BME280;21367;51.930;8.112;2023-04-08T02:14:54;101605.91;;;4.54;90.01
35224;BME280;21367;51.930;8.112;2023-04-08T02:20:03;101611.25;;;4.57;90.26
35224;BME280;21367;51.930;8.112;2023-04-08T02:25:12;101609.44;;;4.66;90.21
35224;BME280;21367;51.930;8.112;2023-04-08T02:30:20;101608.66;;;4.77;89.40
35224;BME280;21367;51.930;8.112;2023-04-08T02:35:26;101621.25;;;4.86;90.12
35224;BME280;21367;51.930;8.112;2023-04-08T02:40:33;101628.34;;;4.90;91.30
35224;BME280;21367;51.930;8.112;2023-04-08T02:45:48;101628.19;;;4.88;92.47
35224;BME280;21367;51.930;8.112;2023-04-08T02:50:55;101622.59;;;4.93;93.00
35224;BME280;21367;51.930;8.112;2023-04-08T02:55:59;101630.06;;;5.01;91.93
35224;BME280;21367;51.930;8.112;2023-04-08T03:01:08;101627.75;;;5.15;91.15
35224;BME280;21367;51.930;8.112;2023-04-08T03:06:15;101626.72;;;5.13;90.57
35224;BME280;21367;51.930;8.112;2023-04-08T03:11:26;101632.66;;;5.23;90.03
35224;BME280;21367;51.930;8.112;2023-04-08T03:16:39;101633.78;;;5.27;89.24
35224;BME280;21367;51.930;8.112;2023-04-08T03:21:52;101635.44;;;5.26;91.08
35224;BME280;21367;51.930;8.112;2023-04-08T03:26:59;101641.53;;;5.28;91.82
35224;BME280;21367;51.930;8.112;2023-04-08T03:32:29;101647.53;;;5.29;92.29
35224;BME280;21367;51.930;8.112;2023-04-08T03:37:41;101643.44;;;5.31;91.66
35224;BME280;21367;51.930;8.112;2023-04-08T03:42:49;101641.38;;;5.37;90.56
35224;BME280;21367;51.930;8.112;2023-04-08T03:47:56;101637.47;;;5.52;89.95
35224;BME280;21367;51.930;8.112;2023-04-08T03:53:00;101634.31;;;5.45;88.92
35224;BME280;21367;51.930;8.112;2023-04-08T03:58:08;101631.66;;;5.65;87.16
35224;BME280;21367;51.930;8.112;2023-04-08T04:03:15;101634.84;;;5.63;87.52
35224;BME280;21367;51.930;8.112;2023-04-08T04:08:20;101649.25;;;5.62;88.44
35224;BME280;21367;51.930;8.112;2023-04-08T04:13:24;101647.25;;;5.80;87.56
35224;BME280;21367;51.930;8.112;2023-04-08T04:18:33;101655.16;;;5.73;88.84
35224;BME280;21367;51.930;8.112;2023-04-08T04:23:38;101669.81;;;5.31;92.37
35224;BME280;21367;51.930;8.112;2023-04-08T04:28:44;101660.88;;;5.59;91.05
35224;BME280;21367;51.930;8.112;2023-04-08T04:33:53;101666.88;;;5.81;89.06
35224;BME280;21367;51.930;8.112;2023-04-08T04:39:02;101662.56;;;5.92;89.24
35224;BME280;21367;51.930;8.112;2023-04-08T04:44:09;101662.47;;;5.90;89.64
35224;BME280;21367;51.930;8.112;2023-04-08T04:49:19;101665.44;;;5.41;92.05
35224;BME280;21367;51.930;8.112;2023-04-08T04:54:24;101660.78;;;5.91;90.54
35224;BME280;21367;51.930;8.112;2023-04-08T04:59:32;101661.28;;;5.97;89.53
35224;BME280;21367;51.930;8.112;2023-04-08T05:04:45;101671.19;;;6.04;89.10
35224;BME280;21367;51.930;8.112;2023-04-08T05:09:53;101677.78;;;5.90;90.47
35224;BME280;21367;51.930;8.112;2023-04-08T05:15:07;101673.97;;;5.85;90.77
35224;BME280;21367;51.930;8.112;2023-04-08T05:20:14;101676.84;;;6.00;90.59
35224;BME280;21367;51.930;8.112;2023-04-08T05:25:33;101686.97;;;5.66;94.25
35224;BME280;21367;51.930;8.112;2023-04-08T05:30:39;101691.78;;;6.17;92.57
35224;BME280;21367;51.930;8.112;2023-04-08T05:35:50;101687.69;;;6.31;91.12
35224;BME280;21367;51.930;8.112;2023-04-08T05:40:57;101697.47;;;6.37;92.44
35224;BME280;21367;51.930;8.112;2023-04-08T05:46:08;101705.59;;;5.65;94.45
35224;BME280;21367;51.930;8.112;2023-04-08T05:51:15;101714.91;;;5.43;96.78
35224;BME280;21367;51.930;8.112;2023-04-08T05:56:20;101716.44;;;5.85;95.60
35224;BME280;21367;51.930;8.112;2023-04-08T06:01:24;101725.00;;;6.41;93.11
35224;BME280;21367;51.930;8.112;2023-04-08T06:06:31;101733.91;;;5.68;93.87
35224;BME280;21367;51.930;8.112;2023-04-08T06:11:35;101731.63;;;5.39;99.89
35224;BME280;21367;51.930;8.112;2023-04-08T06:16:39;101736.69;;;6.15;99.47
35224;BME280;21367;51.930;8.112;2023-04-08T06:21:46;101740.00;;;6.36;93.95
35224;BME280;21367;51.930;8.112;2023-04-08T06:26:51;101744.66;;;6.87;91.27
35224;BME280;21367;51.930;8.112;2023-04-08T06:31:55;101756.31;;;7.19;90.53
35224;BME280;21367;51.930;8.112;2023-04-08T06:37:02;101756.06;;;6.69;92.00
35224;BME280;21367;51.930;8.112;2023-04-08T06:42:06;101772.06;;;6.78;91.44
35224;BME280;21367;51.930;8.112;2023-04-08T06:47:27;101777.56;;;6.61;91.62
35224;BME280;21367;51.930;8.112;2023-04-08T06:52:34;101786.22;;;6.17;94.72
35224;BME280;21367;51.930;8.112;2023-04-08T06:57:41;101785.69;;;6.67;95.10
35224;BME280;21367;51.930;8.112;2023-04-08T07:02:45;101789.22;;;6.23;94.71
35224;BME280;21367;51.930;8.112;2023-04-08T07:07:52;101798.28;;;6.42;96.26
35224;BME280;21367;51.930;8.112;2023-04-08T07:12:56;101805.06;;;6.75;94.01
35224;BME280;21367;51.930;8.112;2023-04-08T07:18:00;101812.66;;;6.30;93.85
35224;BME280;21367;51.930;8.112;2023-04-08T07:23:16;101817.00;;;6.09;97.03
35224;BME280;21367;51.930;8.112;2023-04-08T07:28:20;101820.63;;;6.00;98.03
35224;BME280;21367;51.930;8.112;2023-04-08T07:33:24;101820.06;;;6.05;99.49
35224;BME280;21367;51.930;8.112;2023-04-08T07:38:30;101815.81;;;6.37;95.73
35224;BME280;21367;51.930;8.112;2023-04-08T07:43:35;101820.50;;;6.88;94.46
35224;BME280;21367;51.930;8.112;2023-04-08T07:48:39;101813.91;;;7.02;89.81
35224;BME280;21367;51.930;8.112;2023-04-08T07:53:46;101821.66;;;7.04;91.43
35224;BME280;21367;51.930;8.112;2023-04-08T07:58:52;101833.94;;;6.86;92.16
35224;BME280;21367;51.930;8.112;2023-04-08T08:03:56;101840.84;;;6.53;99.28
35224;BME280;21367;51.930;8.112;2023-04-08T08:09:03;101850.53;;;6.35;99.52
35224;BME280;21367;51.930;8.112;2023-04-08T08:14:07;101837.94;;;6.82;95.85
35224;BME280;21367;51.930;8.112;2023-04-08T08:19:11;101844.44;;;7.01;92.00
35224;BME280;21367;51.930;8.112;2023-04-08T08:24:19;101843.38;;;7.56;89.87
35224;BME280;21367;51.930;8.112;2023-04-08T08:29:23;101851.72;;;7.65;87.77
35224;BME280;21367;51.930;8.112;2023-04-08T08:34:27;101855.59;;;7.72;85.67
35224;BME280;21367;51.930;8.112;2023-04-08T08:39:36;101859.06;;;8.21;84.48
35224;BME280;21367;51.930;8.112;2023-04-08T08:44:40;101857.81;;;7.32;88.73
35224;BME280;21367;51.930;8.112;2023-04-08T08:49:44;101861.44;;;8.79;82.53
35224;BME280;21367;51.930;8.112;2023-04-08T08:54:58;101861.28;;;8.90;82.51
35224;BME280;21367;51.930;8.112;2023-04-08T09:00:08;101862.28;;;9.05;81.54
35224;BME280;21367;51.930;8.112;2023-04-08T09:05:13;101871.59;;;9.16;81.45
35224;BME280;21367;51.930;8.112;2023-04-08T09:10:30;101871.41;;;9.13;83.79
35224;BME280;21367;51.930;8.112;2023-04-08T09:15:34;101870.25;;;9.21;80.30
35224;BME280;21367;51.930;8.112;2023-04-08T09:20:51;101885.50;;;8.56;82.71
35224;BME280;21367;51.930;8.112;2023-04-08T09:26:10;101884.03;;;8.60;84.68
35224;BME280;21367;51.930;8.112;2023-04-08T09:31:25;101888.97;;;9.34;83.93
35224;BME280;21367;51.930;8.112;2023-04-08T09:36:29;101874.78;;;9.52;86.43
35224;BME280;21367;51.930;8.112;2023-04-08T09:41:37;101878.59;;;10.38;77.99
35224;BME280;21367;51.930;8.112;2023-04-08T09:46:52;101867.47;;;11.55;75.81
35224;BME280;21367;51.930;8.112;2023-04-08T09:52:05;101878.03;;;11.00;76.30
35224;BME280;21367;51.930;8.112;2023-04-08T09:57:15;101888.38;;;10.31;78.37
35224;BME280;21367;51.930;8.112;2023-04-08T10:02:27;101876.31;;;10.86;75.72
35224;BME280;21367;51.930;8.112;2023-04-08T10:07:33;101869.13;;;10.65;77.53
35224;BME280;21367;51.930;8.112;2023-04-08T10:12:40;101872.72;;;11.42;73.97
35224;BME280;21367;51.930;8.112;2023-04-08T10:17:44;101871.13;;;10.02;78.67
35224;BME280;21367;51.930;8.112;2023-04-08T10:22:48;101884.88;;;10.72;79.08
35224;BME280;21367;51.930;8.112;2023-04-08T10:27:58;101886.47;;;11.57;74.18
35224;BME280;21367;51.930;8.112;2023-04-08T10:33:09;101894.78;;;10.51;78.89
35224;BME280;21367;51.930;8.112;2023-04-08T10:38:15;101895.00;;;10.14;83.65
35224;BME280;21367;51.930;8.112;2023-04-08T10:43:23;101881.22;;;10.96;79.55
35224;BME280;21367;51.930;8.112;2023-04-08T10:48:27;101879.03;;;11.78;77.37
35224;BME280;21367;51.930;8.112;2023-04-08T10:53:32;101884.69;;;11.56;78.59
35224;BME280;21367;51.930;8.112;2023-04-08T10:58:46;101881.56;;;11.62;75.89
35224;BME280;21367;51.930;8.112;2023-04-08T11:03:51;101888.69;;;11.21;77.00
35224;BME280;21367;51.930;8.112;2023-04-08T11:08:56;101881.09;;;11.84;75.05
35224;BME280;21367;51.930;8.112;2023-04-08T11:14:04;101882.06;;;10.26;79.41
35224;BME280;21367;51.930;8.112;2023-04-08T11:19:08;101890.84;;;11.28;78.09
35224;BME280;21367;51.930;8.112;2023-04-08T11:24:12;101883.19;;;11.45;79.59
35224;BME280;21367;51.930;8.112;2023-04-08T11:29:19;101877.47;;;11.95;77.25
35224;BME280;21367;51.930;8.112;2023-04-08T11:34:23;101876.50;;;12.09;77.06
35224;BME280;21367;51.930;8.112;2023-04-08T11:39:29;101876.16;;;12.03;77.38
35224;BME280;21367;51.930;8.112;2023-04-08T11:44:36;101875.19;;;12.32;75.63
35224;BME280;21367;51.930;8.112;2023-04-08T11:49:44;101867.84;;;12.56;75.33
35224;BME280;21367;51.930;8.112;2023-04-08T11:54:49;101881.38;;;11.88;77.24
35224;BME280;21367;51.930;8.112;2023-04-08T11:59:56;101888.41;;;11.76;78.45
35224;BME280;21367;51.930;8.112;2023-04-08T12:05:00;101883.09;;;11.58;79.06
35224;BME280;21367;51.930;8.112;2023-04-08T12:10:05;101881.34;;;10.70;83.52
35224;BME280;21367;51.930;8.112;2023-04-08T12:15:13;101889.28;;;10.18;85.65
35224;BME280;21367;51.930;8.112;2023-04-08T12:20:19;101896.72;;;10.83;84.37
35224;BME280;21367;51.930;8.112;2023-04-08T12:25:23;101890.91;;;11.15;81.56
35224;BME280;21367;51.930;8.112;2023-04-08T12:30:32;101898.81;;;11.03;82.43
35224;BME280;21367;51.930;8.112;2023-04-08T12:35:36;101893.22;;;11.10;81.61
35224;BME280;21367;51.930;8.112;2023-04-08T12:40:40;101898.78;;;10.60;84.46
35224;BME280;21367;51.930;8.112;2023-04-08T12:45:47;101899.00;;;11.51;80.94
35224;BME280;21367;51.930;8.112;2023-04-08T12:50:51;101893.22;;;11.55;79.04
35224;BME280;21367;51.930;8.112;2023-04-08T12:55:55;101887.06;;;11.53;78.39
35224;BME280;21367;51.930;8.112;2023-04-08T13:01:02;101888.78;;;12.13;77.93
35224;BME280;21367;51.930;8.112;2023-04-08T13:06:06;101893.09;;;11.83;78.26
35224;BME280;21367;51.930;8.112;2023-04-08T13:11:11;101897.78;;;12.05;79.46
35224;BME280;21367;51.930;8.112;2023-04-08T13:16:18;101895.41;;;11.78;78.88
35224;BME280;21367;51.930;8.112;2023-04-08T13:21:22;101916.31;;;12.14;76.93
35224;BME280;21367;51.930;8.112;2023-04-08T13:26:27;101898.19;;;11.07;80.10
35224;BME280;21367;51.930;8.112;2023-04-08T13:31:34;101899.13;;;11.98;79.39
35224;BME280;21367;51.930;8.112;2023-04-08T13:36:38;101899.75;;;11.05;78.33
35224;BME280;21367;51.930;8.112;2023-04-08T13:41:42;101905.59;;;11.03;82.07
35224;BME280;21367;51.930;8.112;2023-04-08T13:46:49;101908.13;;;11.16;82.95
35224;BME280;21367;51.930;8.112;2023-04-08T13:51:54;101901.13;;;10.71;84.00
35224;BME280;21367;51.930;8.112;2023-04-08T13:56:58;101905.38;;;10.70;84.39
35224;BME280;21367;51.930;8.112;2023-04-08T14:02:05;101909.88;;;10.46;84.09
35224;BME280;21367;51.930;8.112;2023-04-08T14:07:09;101904.38;;;11.55;79.08
35224;BME280;21367;51.930;8.112;2023-04-08T14:12:13;101898.53;;;11.73;78.82
35224;BME280;21367;51.930;8.112;2023-04-08T14:17:20;101899.59;;;10.74;84.42
35224;BME280;21367;51.930;8.112;2023-04-08T14:22:24;101903.81;;;10.59;85.90
35224;BME280;21367;51.930;8.112;2023-04-08T14:27:29;101894.44;;;11.02;80.95
35224;BME280;21367;51.930;8.112;2023-04-08T14:32:40;101898.22;;;10.79;82.76
35224;BME280;21367;51.930;8.112;2023-04-08T14:37:45;101888.56;;;10.34;85.94
35224;BME280;21367;51.930;8.112;2023-04-08T14:42:49;101876.47;;;10.74;83.49
35224;BME280;21367;51.930;8.112;2023-04-08T14:47:56;101880.16;;;11.52;80.82
35224;BME280;21367;51.930;8.112;2023-04-08T14:53:00;101882.81;;;12.14;77.22
35224;BME280;21367;51.930;8.112;2023-04-08T14:58:05;101887.59;;;10.88;83.21
35224;BME280;21367;51.930;8.112;2023-04-08T15:03:12;101881.78;;;11.20;83.85
35224;BME280;21367;51.930;8.112;2023-04-08T15:08:29;101882.75;;;11.37;83.87
35224;BME280;21367;51.930;8.112;2023-04-08T15:13:34;101879.09;;;11.33;82.83
35224;BME280;21367;51.930;8.112;2023-04-08T15:18:42;101882.88;;;10.53;84.85
35224;BME280;21367;51.930;8.112;2023-04-08T15:23:46;101884.88;;;10.72;85.69
35224;BME280;21367;51.930;8.112;2023-04-08T15:28:50;101891.00;;;9.64;90.46
35224;BME280;21367;51.930;8.112;2023-04-08T15:34:01;101886.88;;;10.21;88.39
35224;BME280;21367;51.930;8.112;2023-04-08T15:39:05;101894.03;;;11.09;83.41
35224;BME280;21367;51.930;8.112;2023-04-08T15:44:10;101892.75;;;10.18;88.28
35224;BME280;21367;51.930;8.112;2023-04-08T15:49:18;101905.69;;;9.80;91.90
35224;BME280;21367;51.930;8.112;2023-04-08T15:54:22;101906.03;;;9.71;90.10
35224;BME280;21367;51.930;8.112;2023-04-08T15:59:27;101895.22;;;10.04;90.94
35224;BME280;21367;51.930;8.112;2023-04-08T16:04:37;101898.31;;;9.71;91.99
35224;BME280;21367;51.930;8.112;2023-04-08T16:09:43;101899.91;;;9.56;92.25
35224;BME280;21367;51.930;8.112;2023-04-08T16:14:48;101903.72;;;9.89;89.54
35224;BME280;21367;51.930;8.112;2023-04-08T16:19:57;101904.22;;;9.57;93.15
35224;BME280;21367;51.930;8.112;2023-04-08T16:25:01;101906.03;;;9.71;93.76
35224;BME280;21367;51.930;8.112;2023-04-08T16:30:07;101909.47;;;9.72;91.96
35224;BME280;21367;51.930;8.112;2023-04-08T16:35:17;101911.22;;;10.26;89.26
35224;BME280;21367;51.930;8.112;2023-04-08T16:40:22;101915.19;;;10.08;91.07
35224;BME280;21367;51.930;8.112;2023-04-08T16:45:27;101921.59;;;10.28;87.30
35224;BME280;21367;51.930;8.112;2023-04-08T16:50:36;101918.06;;;9.86;89.89
35224;BME280;21367;51.930;8.112;2023-04-08T16:55:40;101925.66;;;9.58;91.15
35224;BME280;21367;51.930;8.112;2023-04-08T17:00:44;101925.56;;;9.18;93.10
35224;BME280;21367;51.930;8.112;2023-04-08T17:05:54;101927.66;;;9.37;94.22
35224;BME280;21367;51.930;8.112;2023-04-08T17:11:09;101930.03;;;9.34;95.12
35224;BME280;21367;51.930;8.112;2023-04-08T17:16:17;101930.75;;;9.31;93.86
35224;BME280;21367;51.930;8.112;2023-04-08T17:21:25;101927.59;;;9.35;92.98
35224;BME280;21367;51.930;8.112;2023-04-08T17:26:32;101934.47;;;9.23;93.05
35224;BME280;21367;51.930;8.112;2023-04-08T17:31:38;101933.97;;;9.15;95.00
35224;BME280;21367;51.930;8.112;2023-04-08T17:36:49;101942.53;;;8.91;95.86
35224;BME280;21367;51.930;8.112;2023-04-08T17:42:05;101943.25;;;8.76;96.03
35224;BME280;21367;51.930;8.112;2023-04-08T17:47:12;101943.63;;;8.94;96.06
35224;BME280;21367;51.930;8.112;2023-04-08T17:52:26;101951.13;;;8.91;96.00
35224;BME280;21367;51.930;8.112;2023-04-08T17:57:33;101954.19;;;8.74;96.83
35224;BME280;21367;51.930;8.112;2023-04-08T18:02:38;101948.72;;;8.81;98.21
35224;BME280;21367;51.930;8.112;2023-04-08T18:07:46;101948.31;;;9.00;97.24
35224;BME280;21367;51.930;8.112;2023-04-08T18:12:51;101959.03;;;8.94;94.76
35224;BME280;21367;51.930;8.112;2023-04-08T18:18:03;101959.53;;;8.77;97.88
35224;BME280;21367;51.930;8.112;2023-04-08T18:23:16;101963.56;;;8.62;98.42
35224;BME280;21367;51.930;8.112;2023-04-08T18:28:35;101967.81;;;8.98;98.60
35224;BME280;21367;51.930;8.112;2023-04-08T18:33:42;101979.88;;;8.50;99.61
35224;BME280;21367;51.930;8.112;2023-04-08T18:38:56;101986.44;;;8.35;100.00
35224;BME280;21367;51.930;8.112;2023-04-08T18:44:02;102002.94;;;8.50;100.00
35224;BME280;21367;51.930;8.112;2023-04-08T18:49:12;102006.75;;;8.80;99.03
35224;BME280;21367;51.930;8.112;2023-04-08T18:54:33;102014.34;;;8.91;97.70
35224;BME280;21367;51.930;8.112;2023-04-08T18:59:47;102019.56;;;8.44;99.06
35224;BME280;21367;51.930;8.112;2023-04-08T19:04:54;102014.09;;;8.27;98.86
35224;BME280;21367;51.930;8.112;2023-04-08T19:10:02;102015.53;;;8.47;97.67
35224;BME280;21367;51.930;8.112;2023-04-08T19:15:09;102016.16;;;8.33;98.61
35224;BME280;21367;51.930;8.112;2023-04-08T19:20:14;102016.84;;;8.07;98.74
35224;BME280;21367;51.930;8.112;2023-04-08T19:25:21;102023.06;;;7.99;99.17
35224;BME280;21367;51.930;8.112;2023-04-08T19:30:26;102032.75;;;8.15;99.16
35224;BME280;21367;51.930;8.112;2023-04-08T19:35:32;102022.84;;;8.66;97.43
35224;BME280;21367;51.930;8.112;2023-04-08T19:40:45;102024.53;;;8.30;97.85
35224;BME280;21367;51.930;8.112;2023-04-08T19:45:52;102018.75;;;8.56;97.73
35224;BME280;21367;51.930;8.112;2023-04-08T19:50:56;102010.72;;;8.52;96.03
35224;BME280;21367;51.930;8.112;2023-04-08T19:56:11;102016.84;;;8.66;94.74
35224;BME280;21367;51.930;8.112;2023-04-08T20:01:16;102019.19;;;8.16;98.04
35224;BME280;21367;51.930;8.112;2023-04-08T20:06:34;102025.44;;;8.19;97.77
35224;BME280;21367;51.930;8.112;2023-04-08T20:11:41;102036.78;;;7.99;97.31
35224;BME280;21367;51.930;8.112;2023-04-08T20:16:45;102026.41;;;7.98;94.51
35224;BME280;21367;51.930;8.112;2023-04-08T20:21:49;102030.09;;;8.01;93.85
35224;BME280;21367;51.930;8.112;2023-04-08T20:26:56;102029.97;;;8.11;94.06
35224;BME280;21367;51.930;8.112;2023-04-08T20:32:02;102040.78;;;8.07;95.40
35224;BME280;21367;51.930;8.112;2023-04-08T20:37:07;102046.78;;;8.20;95.65
35224;BME280;21367;51.930;8.112;2023-04-08T20:42:14;102045.03;;;8.42;93.25
35224;BME280;21367;51.930;8.112;2023-04-08T20:47:19;102045.13;;;7.97;94.59
35224;BME280;21367;51.930;8.112;2023-04-08T20:52:24;102043.88;;;7.92;96.53
35224;BME280;21367;51.930;8.112;2023-04-08T20:57:31;102047.22;;;7.91;96.09
35224;BME280;21367;51.930;8.112;2023-04-08T21:02:37;102044.00;;;8.05;96.74
35224;BME280;21367;51.930;8.112;2023-04-08T21:07:41;102052.22;;;7.89;97.85
35224;BME280;21367;51.930;8.112;2023-04-08T21:12:51;102051.63;;;7.70;97.19
35224;BME280;21367;51.930;8.112;2023-04-08T21:17:57;102047.56;;;8.07;92.93
35224;BME280;21367;51.930;8.112;2023-04-08T21:23:03;102047.69;;;8.08;92.73
35224;BME280;21367;51.930;8.112;2023-04-08T21:28:25;102045.88;;;7.96;92.13
35224;BME280;21367;51.930;8.112;2023-04-08T21:33:33;102039.16;;;7.62;94.73
35224;BME280;21367;51.930;8.112;2023-04-08T21:38:47;102040.47;;;8.03;93.43
35224;BME280;21367;51.930;8.112;2023-04-08T21:43:55;102040.06;;;7.86;93.36
35224;BME280;21367;51.930;8.112;2023-04-08T21:49:01;102040.56;;;8.04;92.06
35224;BME280;21367;51.930;8.112;2023-04-08T21:54:12;102036.94;;;7.67;94.39
35224;BME280;21367;51.930;8.112;2023-04-08T21:59:24;102040.81;;;7.62;95.80
35224;BME280;21367;51.930;8.112;2023-04-08T22:04:33;102040.88;;;7.52;95.88
35224;BME280;21367;51.930;8.112;2023-04-08T22:09:40;102039.44;;;7.44;95.66
35224;BME280;21367;51.930;8.112;2023-04-08T22:14:53;102036.53;;;7.84;95.03
35224;BME280;21367;51.930;8.112;2023-04-08T22:20:04;102044.44;;;7.87;94.21
35224;BME280;21367;51.930;8.112;2023-04-08T22:25:14;102043.09;;;7.81;93.14
35224;BME280;21367;51.930;8.112;2023-04-08T22:30:24;102043.56;;;7.53;95.39
35224;BME280;21367;51.930;8.112;2023-04-08T22:35:30;102037.75;;;7.44;96.04
35224;BME280;21367;51.930;8.112;2023-04-08T22:40:38;102038.09;;;7.49;94.92
35224;BME280;21367;51.930;8.112;2023-04-08T22:46:02;102030.66;;;6.96;99.22
35224;BME280;21367;51.930;8.112;2023-04-08T22:51:10;102034.44;;;6.79;100.00
35224;BME280;21367;51.930;8.112;2023-04-08T22:56:16;102039.38;;;7.32;95.12
35224;BME280;21367;51.930;8.112;2023-04-08T23:01:26;102036.19;;;7.12;95.23
35224;BME280;21367;51.930;8.112;2023-04-08T23:06:32;102036.91;;;7.22;93.51
35224;BME280;21367;51.930;8.112;2023-04-08T23:11:38;102032.50;;;7.42;91.65
35224;BME280;21367;51.930;8.112;2023-04-08T23:16:49;102029.47;;;7.03;92.45
35224;BME280;21367;51.930;8.112;2023-04-08T23:21:54;102029.34;;;7.01;92.85
35224;BME280;21367;51.930;8.112;2023-04-08T23:26:58;102029.09;;;6.98;92.56
35224;BME280;21367;51.930;8.112;2023-04-08T23:32:15;102027.66;;;7.02;92.89
35224;BME280;21367;51.930;8.112;2023-04-08T23:37:30;102032.00;;;6.59;95.82
35224;BME280;21367;51.930;8.112;2023-04-08T23:42:35;102026.28;;;6.83;94.32
35224;BME280;21367;51.930;8.112;2023-04-08T23:47:43;102039.22;;;6.75;93.51
35224;BME280;21367;51.930;8.112;2023-04-08T23:52:51;102028.44;;;6.79;92.74
35224;BME280;21367;51.930;8.112;2023-04-08T23:58:03;102038.88;;;6.60;93.27
